sensor_id;sensor_type;location;lat;lon;timestamp;P1;durP1;ratioP1;P2;durP2;ratioP2
8500;SDS011;4288;48.484;10.024;2023-04-10T00:02:19;17.23;;;8.30;;
8500;SDS011;4288;48.484;10.024;2023-04-10T00:04:46;14.93;;;7.37;;
8500;SDS011;4288;48.484;10.024;2023-04-10T00:07:14;16.90;;;7.87;;
8500;SDS011;4288;48.484;10.024;2023-04-10T00:09:42;17.80;;;8.33;;
8500;SDS011;4288;48.484;10.024;2023-04-10T00:12:09;13.73;;;7.33;;
8500;SDS011;4288;48.484;10.024;2023-04-10T00:14:36;15.43;;;8.80;;
8500;SDS011;4288;48.484;10.024;2023-04-10T00:17:04;15.90;;;8.70;;
8500;SDS011;4288;48.484;10.024;2023-04-10T00:19:31;22.47;;;9.53;;
8500;SDS011;4288;48.484;10.024;2023-04-10T00:21:59;17.57;;;8.67;;
8500;SDS011;4288;48.484;10.024;2023-04-10T00:24:27;15.80;;;7.93;;
8500;SDS011;4288;48.484;10.024;2023-04-10T00:26:54;14.50;;;7.70;;
8500;SDS011;4288;48.484;10.024;2023-04-10T00:29:22;13.30;;;7.03;;
8500;SDS011;4288;48.484;10.024;2023-04-10T00:31:49;16.73;;;9.27;;
8500;SDS011;4288;48.484;10.024;2023-04-10T00:34:16;12.27;;;6.77;;
8500;SDS011;4288;48.484;10.024;2023-04-10T00:36:43;16.23;;;7.67;;
8500;SDS011;4288;48.484;10.024;2023-04-10T00:39:12;22.13;;;9.23;;
8500;SDS011;4288;48.484;10.024;2023-04-10T00:41:40;15.43;;;9.13;;
8500;SDS011;4288;48.484;10.024;2023-04-10T00:44:07;14.57;;;8.23;;
8500;SDS011;4288;48.484;10.024;2023-04-10T00:46:35;14.77;;;7.20;;
8500;SDS011;4288;48.484;10.024;2023-04-10T00:49:03;15.43;;;8.53;;
8500;SDS011;4288;48.484;10.024;2023-04-10T00:51:31;19.73;;;9.60;;
8500;SDS011;4288;48.484;10.024;2023-04-10T00:53:58;22.63;;;9.13;;
8500;SDS011;4288;48.484;10.024;2023-04-10T00:56:26;17.17;;;8.70;;
8500;SDS011;4288;48.484;10.024;2023-04-10T00:58:57;20.00;;;8.47;;
8500;SDS011;4288;48.484;10.024;2023-04-10T01:01:24;16.33;;;9.10;;
8500;SDS011;4288;48.484;10.024;2023-04-10T01:03:51;14.53;;;8.00;;
8500;SDS011;4288;48.484;10.024;2023-04-10T01:06:22;14.47;;;7.37;;
8500;SDS011;4288;48.484;10.024;2023-04-10T01:09:02;15.57;;;8.43;;
8500;SDS011;4288;48.484;10.024;2023-04-10T01:11:38;18.90;;;9.13;;
8500;SDS011;4288;48.484;10.024;2023-04-10T01:14:22;15.93;;;8.23;;
8500;SDS011;4288;48.484;10.024;2023-04-10T01:17:00;13.93;;;8.00;;
8500;SDS011;4288;48.484;10.024;2023-04-10T01:19:38;13.20;;;7.67;;
8500;SDS011;4288;48.484;10.024;2023-04-10T01:22:31;16.23;;;7.57;;
8500;SDS011;4288;48.484;10.024;2023-04-10T01:28:02;13.83;;;7.60;;
8500;SDS011;4288;48.484;10.024;2023-04-10T01:30:42;14.73;;;8.07;;
8500;SDS011;4288;48.484;10.024;2023-04-10T01:33:13;16.73;;;8.50;;
8500;SDS011;4288;48.484;10.024;2023-04-10T01:35:45;16.40;;;8.10;;
8500;SDS011;4288;48.484;10.024;2023-04-10T01:38:17;15.37;;;8.40;;
8500;SDS011;4288;48.484;10.024;2023-04-10T01:40:48;15.27;;;7.50;;
8500;SDS011;4288;48.484;10.024;2023-04-10T01:43:18;16.00;;;8.20;;
8500;SDS011;4288;48.484;10.024;2023-04-10T01:45:48;13.47;;;6.57;;
8500;SDS011;4288;48.484;10.024;2023-04-10T01:48:17;15.03;;;7.90;;
8500;SDS011;4288;48.484;10.024;2023-04-10T01:50:45;15.77;;;7.53;;
8500;SDS011;4288;48.484;10.024;2023-04-10T01:53:14;15.13;;;7.60;;
8500;SDS011;4288;48.484;10.024;2023-04-10T01:55:41;16.43;;;8.50;;
8500;SDS011;4288;48.484;10.024;2023-04-10T01:58:09;17.03;;;8.70;;
8500;SDS011;4288;48.484;10.024;2023-04-10T02:00:37;13.03;;;7.40;;
8500;SDS011;4288;48.484;10.024;2023-04-10T02:03:06;13.77;;;7.50;;
8500;SDS011;4288;48.484;10.024;2023-04-10T02:05:36;15.40;;;7.00;;
8500;SDS011;4288;48.484;10.024;2023-04-10T02:08:19;14.03;;;6.90;;
8500;SDS011;4288;48.484;10.024;2023-04-10T02:10:55;17.63;;;8.23;;
8500;SDS011;4288;48.484;10.024;2023-04-10T02:13:29;12.50;;;6.77;;
8500;SDS011;4288;48.484;10.024;2023-04-10T02:15:59;14.23;;;7.63;;
8500;SDS011;4288;48.484;10.024;2023-04-10T02:18:31;10.90;;;6.47;;
8500;SDS011;4288;48.484;10.024;2023-04-10T02:21:00;19.10;;;8.07;;
8500;SDS011;4288;48.484;10.024;2023-04-10T02:23:28;12.30;;;6.73;;
8500;SDS011;4288;48.484;10.024;2023-04-10T02:25:55;13.93;;;7.57;;
8500;SDS011;4288;48.484;10.024;2023-04-10T02:28:23;12.83;;;6.83;;
8500;SDS011;4288;48.484;10.024;2023-04-10T02:30:50;15.57;;;8.10;;
8500;SDS011;4288;48.484;10.024;2023-04-10T02:33:17;15.23;;;7.87;;
8500;SDS011;4288;48.484;10.024;2023-04-10T02:35:45;15.27;;;7.87;;
8500;SDS011;4288;48.484;10.024;2023-04-10T02:38:12;17.87;;;6.97;;
8500;SDS011;4288;48.484;10.024;2023-04-10T02:40:39;13.80;;;7.90;;
8500;SDS011;4288;48.484;10.024;2023-04-10T02:43:06;13.00;;;7.10;;
8500;SDS011;4288;48.484;10.024;2023-04-10T02:45:33;17.60;;;7.20;;
8500;SDS011;4288;48.484;10.024;2023-04-10T02:48:01;12.20;;;7.97;;
8500;SDS011;4288;48.484;10.024;2023-04-10T02:50:30;13.20;;;7.30;;
8500;SDS011;4288;48.484;10.024;2023-04-10T02:52:58;14.70;;;7.70;;
8500;SDS011;4288;48.484;10.024;2023-04-10T02:55:25;17.40;;;8.20;;
8500;SDS011;4288;48.484;10.024;2023-04-10T02:57:53;17.13;;;8.10;;
8500;SDS011;4288;48.484;10.024;2023-04-10T03:00:21;15.40;;;7.27;;
8500;SDS011;4288;48.484;10.024;2023-04-10T03:02:48;16.23;;;8.50;;
8500;SDS011;4288;48.484;10.024;2023-04-10T03:05:15;14.30;;;7.47;;
8500;SDS011;4288;48.484;10.024;2023-04-10T03:07:42;11.47;;;6.60;;
8500;SDS011;4288;48.484;10.024;2023-04-10T03:10:11;13.97;;;7.10;;
8500;SDS011;4288;48.484;10.024;2023-04-10T03:12:38;15.37;;;7.13;;
8500;SDS011;4288;48.484;10.024;2023-04-10T03:15:05;16.00;;;7.70;;
8500;SDS011;4288;48.484;10.024;2023-04-10T03:17:33;14.27;;;7.03;;
8500;SDS011;4288;48.484;10.024;2023-04-10T03:20:00;15.03;;;7.87;;
8500;SDS011;4288;48.484;10.024;2023-04-10T03:22:27;16.83;;;8.17;;
8500;SDS011;4288;48.484;10.024;2023-04-10T03:24:56;17.33;;;8.60;;
8500;SDS011;4288;48.484;10.024;2023-04-10T03:27:24;13.43;;;7.53;;
8500;SDS011;4288;48.484;10.024;2023-04-10T03:29:53;14.17;;;7.60;;
8500;SDS011;4288;48.484;10.024;2023-04-10T03:32:20;15.27;;;8.20;;
8500;SDS011;4288;48.484;10.024;2023-04-10T03:34:47;16.60;;;8.00;;
8500;SDS011;4288;48.484;10.024;2023-04-10T03:37:14;12.83;;;7.67;;
8500;SDS011;4288;48.484;10.024;2023-04-10T03:39:41;14.80;;;7.67;;
8500;SDS011;4288;48.484;10.024;2023-04-10T03:42:08;15.00;;;7.80;;
8500;SDS011;4288;48.484;10.024;2023-04-10T03:44:36;15.67;;;8.43;;
8500;SDS011;4288;48.484;10.024;2023-04-10T03:47:04;14.47;;;7.90;;
8500;SDS011;4288;48.484;10.024;2023-04-10T03:49:31;16.33;;;8.60;;
8500;SDS011;4288;48.484;10.024;2023-04-10T03:51:58;15.03;;;6.77;;
8500;SDS011;4288;48.484;10.024;2023-04-10T03:54:25;13.70;;;7.70;;
8500;SDS011;4288;48.484;10.024;2023-04-10T03:56:52;15.80;;;7.60;;
8500;SDS011;4288;48.484;10.024;2023-04-10T03:59:20;15.23;;;7.67;;
8500;SDS011;4288;48.484;10.024;2023-04-10T04:01:49;14.23;;;7.23;;
8500;SDS011;4288;48.484;10.024;2023-04-10T04:04:16;13.37;;;7.47;;
8500;SDS011;4288;48.484;10.024;2023-04-10T04:06:43;18.90;;;9.37;;
8500;SDS011;4288;48.484;10.024;2023-04-10T04:09:11;18.33;;;8.63;;
8500;SDS011;4288;48.484;10.024;2023-04-10T04:11:38;13.83;;;7.60;;
8500;SDS011;4288;48.484;10.024;2023-04-10T04:14:05;15.37;;;8.03;;
8500;SDS011;4288;48.484;10.024;2023-04-10T04:16:32;17.47;;;8.10;;
8500;SDS011;4288;48.484;10.024;2023-04-10T04:19:00;18.37;;;7.73;;
8500;SDS011;4288;48.484;10.024;2023-04-10T04:21:27;16.90;;;8.13;;
8500;SDS011;4288;48.484;10.024;2023-04-10T04:23:55;13.67;;;7.13;;
8500;SDS011;4288;48.484;10.024;2023-04-10T04:26:22;17.63;;;7.20;;
8500;SDS011;4288;48.484;10.024;2023-04-10T04:28:50;13.30;;;6.63;;
8500;SDS011;4288;48.484;10.024;2023-04-10T04:31:17;16.67;;;7.47;;
8500;SDS011;4288;48.484;10.024;2023-04-10T04:33:44;14.40;;;7.83;;
8500;SDS011;4288;48.484;10.024;2023-04-10T04:36:12;17.00;;;7.93;;
8500;SDS011;4288;48.484;10.024;2023-04-10T04:38:40;15.63;;;8.83;;
8500;SDS011;4288;48.484;10.024;2023-04-10T04:41:08;18.33;;;9.10;;
8500;SDS011;4288;48.484;10.024;2023-04-10T04:43:35;16.33;;;8.90;;
8500;SDS011;4288;48.484;10.024;2023-04-10T04:46:02;11.97;;;7.77;;
8500;SDS011;4288;48.484;10.024;2023-04-10T04:48:29;16.67;;;7.60;;
8500;SDS011;4288;48.484;10.024;2023-04-10T04:50:56;18.83;;;8.00;;
8500;SDS011;4288;48.484;10.024;2023-04-10T04:53:25;15.40;;;8.13;;
8500;SDS011;4288;48.484;10.024;2023-04-10T04:55:52;17.70;;;7.97;;
8500;SDS011;4288;48.484;10.024;2023-04-10T04:58:19;11.20;;;6.40;;
8500;SDS011;4288;48.484;10.024;2023-04-10T05:00:48;14.73;;;6.60;;
8500;SDS011;4288;48.484;10.024;2023-04-10T05:03:16;14.77;;;7.07;;
8500;SDS011;4288;48.484;10.024;2023-04-10T05:05:43;16.30;;;7.40;;
8500;SDS011;4288;48.484;10.024;2023-04-10T05:08:10;15.67;;;8.10;;
8500;SDS011;4288;48.484;10.024;2023-04-10T05:10:39;13.57;;;6.70;;
8500;SDS011;4288;48.484;10.024;2023-04-10T05:13:06;16.20;;;8.23;;
8500;SDS011;4288;48.484;10.024;2023-04-10T05:15:33;16.00;;;7.80;;
8500;SDS011;4288;48.484;10.024;2023-04-10T05:18:00;15.60;;;7.80;;
8500;SDS011;4288;48.484;10.024;2023-04-10T05:20:27;17.10;;;8.13;;
8500;SDS011;4288;48.484;10.024;2023-04-10T05:22:54;13.57;;;7.70;;
8500;SDS011;4288;48.484;10.024;2023-04-10T05:25:22;17.67;;;8.03;;
8500;SDS011;4288;48.484;10.024;2023-04-10T05:27:50;16.90;;;7.73;;
8500;SDS011;4288;48.484;10.024;2023-04-10T05:30:17;14.70;;;8.13;;
8500;SDS011;4288;48.484;10.024;2023-04-10T05:32:45;17.30;;;8.30;;
8500;SDS011;4288;48.484;10.024;2023-04-10T05:35:12;15.20;;;8.27;;
8500;SDS011;4288;48.484;10.024;2023-04-10T05:37:39;13.90;;;7.27;;
8500;SDS011;4288;48.484;10.024;2023-04-10T05:40:06;16.47;;;7.50;;
8500;SDS011;4288;48.484;10.024;2023-04-10T05:42:35;13.67;;;7.37;;
8500;SDS011;4288;48.484;10.024;2023-04-10T05:45:03;17.20;;;8.37;;
8500;SDS011;4288;48.484;10.024;2023-04-10T05:47:32;18.50;;;9.00;;
8500;SDS011;4288;48.484;10.024;2023-04-10T05:49:59;17.33;;;8.20;;
8500;SDS011;4288;48.484;10.024;2023-04-10T05:52:26;18.10;;;8.60;;
8500;SDS011;4288;48.484;10.024;2023-04-10T05:54:53;16.17;;;9.30;;
8500;SDS011;4288;48.484;10.024;2023-04-10T05:57:20;17.50;;;9.13;;
8500;SDS011;4288;48.484;10.024;2023-04-10T05:59:47;15.20;;;8.80;;
8500;SDS011;4288;48.484;10.024;2023-04-10T06:02:15;15.77;;;9.63;;
8500;SDS011;4288;48.484;10.024;2023-04-10T06:04:45;14.40;;;8.77;;
8500;SDS011;4288;48.484;10.024;2023-04-10T06:07:12;16.50;;;8.40;;
8500;SDS011;4288;48.484;10.024;2023-04-10T06:09:39;15.53;;;9.20;;
8500;SDS011;4288;48.484;10.024;2023-04-10T06:12:06;16.53;;;8.57;;
8500;SDS011;4288;48.484;10.024;2023-04-10T06:14:34;17.13;;;9.03;;
8500;SDS011;4288;48.484;10.024;2023-04-10T06:17:01;13.83;;;8.43;;
8500;SDS011;4288;48.484;10.024;2023-04-10T06:19:29;14.43;;;8.83;;
8500;SDS011;4288;48.484;10.024;2023-04-10T06:21:56;23.80;;;10.93;;
8500;SDS011;4288;48.484;10.024;2023-04-10T06:24:23;15.63;;;9.37;;
8500;SDS011;4288;48.484;10.024;2023-04-10T06:26:50;17.87;;;9.80;;
8500;SDS011;4288;48.484;10.024;2023-04-10T06:29:17;14.23;;;9.10;;
8500;SDS011;4288;48.484;10.024;2023-04-10T06:31:44;16.03;;;9.70;;
8500;SDS011;4288;48.484;10.024;2023-04-10T06:34:11;15.57;;;8.67;;
8500;SDS011;4288;48.484;10.024;2023-04-10T06:36:40;18.93;;;9.60;;
8500;SDS011;4288;48.484;10.024;2023-04-10T06:39:07;23.07;;;12.10;;
8500;SDS011;4288;48.484;10.024;2023-04-10T06:41:34;27.93;;;14.33;;
8500;SDS011;4288;48.484;10.024;2023-04-10T06:44:01;15.87;;;10.27;;
8500;SDS011;4288;48.484;10.024;2023-04-10T06:46:28;24.23;;;11.23;;
8500;SDS011;4288;48.484;10.024;2023-04-10T06:48:55;16.90;;;10.50;;
8500;SDS011;4288;48.484;10.024;2023-04-10T06:51:22;15.90;;;9.73;;
8500;SDS011;4288;48.484;10.024;2023-04-10T06:53:50;19.90;;;10.20;;
8500;SDS011;4288;48.484;10.024;2023-04-10T06:56:17;18.40;;;10.70;;
8500;SDS011;4288;48.484;10.024;2023-04-10T06:58:45;16.53;;;8.90;;
8500;SDS011;4288;48.484;10.024;2023-04-10T07:01:11;18.57;;;9.60;;
8500;SDS011;4288;48.484;10.024;2023-04-10T07:03:38;21.00;;;10.27;;
8500;SDS011;4288;48.484;10.024;2023-04-10T07:06:05;18.40;;;8.60;;
8500;SDS011;4288;48.484;10.024;2023-04-10T07:08:32;15.20;;;9.30;;
8500;SDS011;4288;48.484;10.024;2023-04-10T07:11:01;16.77;;;8.87;;
8500;SDS011;4288;48.484;10.024;2023-04-10T07:13:27;20.00;;;9.13;;
8500;SDS011;4288;48.484;10.024;2023-04-10T07:15:54;15.00;;;9.33;;
8500;SDS011;4288;48.484;10.024;2023-04-10T07:18:21;15.33;;;8.20;;
8500;SDS011;4288;48.484;10.024;2023-04-10T07:20:49;13.30;;;7.87;;
8500;SDS011;4288;48.484;10.024;2023-04-10T07:23:16;14.50;;;8.40;;
8500;SDS011;4288;48.484;10.024;2023-04-10T07:25:45;13.33;;;8.27;;
8500;SDS011;4288;48.484;10.024;2023-04-10T07:28:13;18.47;;;8.93;;
8500;SDS011;4288;48.484;10.024;2023-04-10T07:30:40;16.33;;;7.93;;
8500;SDS011;4288;48.484;10.024;2023-04-10T07:33:07;9.27;;;6.77;;
8500;SDS011;4288;48.484;10.024;2023-04-10T07:35:33;10.50;;;7.27;;
8500;SDS011;4288;48.484;10.024;2023-04-10T07:38:01;14.00;;;7.40;;
8500;SDS011;4288;48.484;10.024;2023-04-10T07:40:28;11.90;;;7.73;;
8500;SDS011;4288;48.484;10.024;2023-04-10T07:42:55;11.33;;;7.60;;
8500;SDS011;4288;48.484;10.024;2023-04-10T07:45:23;12.07;;;7.33;;
8500;SDS011;4288;48.484;10.024;2023-04-10T07:47:51;11.83;;;7.30;;
8500;SDS011;4288;48.484;10.024;2023-04-10T07:50:18;11.37;;;6.23;;
8500;SDS011;4288;48.484;10.024;2023-04-10T07:52:46;11.20;;;6.87;;
8500;SDS011;4288;48.484;10.024;2023-04-10T07:55:13;9.97;;;6.67;;
8500;SDS011;4288;48.484;10.024;2023-04-10T07:57:40;10.87;;;7.53;;
8500;SDS011;4288;48.484;10.024;2023-04-10T08:00:08;10.30;;;7.23;;
8500;SDS011;4288;48.484;10.024;2023-04-10T08:02:37;12.70;;;6.80;;
8500;SDS011;4288;48.484;10.024;2023-04-10T08:05:05;10.83;;;7.60;;
8500;SDS011;4288;48.484;10.024;2023-04-10T08:07:32;11.43;;;7.60;;
8500;SDS011;4288;48.484;10.024;2023-04-10T08:10:00;14.43;;;8.20;;
8500;SDS011;4288;48.484;10.024;2023-04-10T08:12:27;13.60;;;7.77;;
8500;SDS011;4288;48.484;10.024;2023-04-10T08:14:56;15.20;;;7.50;;
8500;SDS011;4288;48.484;10.024;2023-04-10T08:17:23;12.07;;;7.30;;
8500;SDS011;4288;48.484;10.024;2023-04-10T08:19:51;11.00;;;7.60;;
8500;SDS011;4288;48.484;10.024;2023-04-10T08:22:18;11.17;;;7.23;;
8500;SDS011;4288;48.484;10.024;2023-04-10T08:24:45;10.87;;;7.30;;
8500;SDS011;4288;48.484;10.024;2023-04-10T08:27:11;11.63;;;7.13;;
8500;SDS011;4288;48.484;10.024;2023-04-10T08:29:40;11.57;;;7.40;;
8500;SDS011;4288;48.484;10.024;2023-04-10T08:32:07;9.00;;;6.93;;
8500;SDS011;4288;48.484;10.024;2023-04-10T08:34:34;11.17;;;7.07;;
8500;SDS011;4288;48.484;10.024;2023-04-10T08:37:05;11.40;;;8.27;;
8500;SDS011;4288;48.484;10.024;2023-04-10T08:39:33;11.57;;;7.20;;
8500;SDS011;4288;48.484;10.024;2023-04-10T08:42:01;11.80;;;6.63;;
8500;SDS011;4288;48.484;10.024;2023-04-10T08:44:28;10.00;;;6.40;;
8500;SDS011;4288;48.484;10.024;2023-04-10T08:46:55;12.77;;;7.20;;
8500;SDS011;4288;48.484;10.024;2023-04-10T08:49:28;12.33;;;8.67;;
8500;SDS011;4288;48.484;10.024;2023-04-10T08:51:57;9.20;;;6.70;;
8500;SDS011;4288;48.484;10.024;2023-04-10T08:54:27;9.13;;;6.00;;
8500;SDS011;4288;48.484;10.024;2023-04-10T08:56:55;8.70;;;5.83;;
8500;SDS011;4288;48.484;10.024;2023-04-10T08:59:24;9.87;;;6.70;;
8500;SDS011;4288;48.484;10.024;2023-04-10T09:01:53;9.30;;;6.20;;
8500;SDS011;4288;48.484;10.024;2023-04-10T09:04:21;9.23;;;6.67;;
8500;SDS011;4288;48.484;10.024;2023-04-10T09:06:49;11.73;;;7.17;;
8500;SDS011;4288;48.484;10.024;2023-04-10T09:09:17;10.73;;;7.00;;
8500;SDS011;4288;48.484;10.024;2023-04-10T09:11:59;10.23;;;6.53;;
8500;SDS011;4288;48.484;10.024;2023-04-10T09:14:28;11.87;;;6.80;;
8500;SDS011;4288;48.484;10.024;2023-04-10T09:17:10;10.03;;;5.67;;
8500;SDS011;4288;48.484;10.024;2023-04-10T09:19:40;11.03;;;7.00;;
8500;SDS011;4288;48.484;10.024;2023-04-10T09:22:09;8.73;;;5.67;;
8500;SDS011;4288;48.484;10.024;2023-04-10T09:24:37;7.43;;;5.50;;
8500;SDS011;4288;48.484;10.024;2023-04-10T09:27:08;7.17;;;5.30;;
8500;SDS011;4288;48.484;10.024;2023-04-10T09:29:40;7.90;;;5.90;;
8500;SDS011;4288;48.484;10.024;2023-04-10T09:32:10;7.20;;;4.43;;
8500;SDS011;4288;48.484;10.024;2023-04-10T09:34:50;7.83;;;5.13;;
8500;SDS011;4288;48.484;10.024;2023-04-10T09:37:19;6.53;;;5.00;;
8500;SDS011;4288;48.484;10.024;2023-04-10T09:39:47;10.47;;;6.53;;
8500;SDS011;4288;48.484;10.024;2023-04-10T09:42:16;12.90;;;6.03;;
8500;SDS011;4288;48.484;10.024;2023-04-10T09:44:57;13.13;;;7.63;;
8500;SDS011;4288;48.484;10.024;2023-04-10T09:47:25;8.90;;;5.80;;
8500;SDS011;4288;48.484;10.024;2023-04-10T09:49:53;10.60;;;5.57;;
8500;SDS011;4288;48.484;10.024;2023-04-10T09:52:23;8.90;;;4.97;;
8500;SDS011;4288;48.484;10.024;2023-04-10T09:54:51;8.63;;;5.00;;
8500;SDS011;4288;48.484;10.024;2023-04-10T09:57:22;3.87;;;3.50;;
8500;SDS011;4288;48.484;10.024;2023-04-10T09:59:51;5.10;;;3.73;;
8500;SDS011;4288;48.484;10.024;2023-04-10T10:02:21;7.37;;;4.33;;
8500;SDS011;4288;48.484;10.024;2023-04-10T10:04:49;5.90;;;3.93;;
8500;SDS011;4288;48.484;10.024;2023-04-10T10:07:19;5.20;;;3.53;;
8500;SDS011;4288;48.484;10.024;2023-04-10T10:09:49;5.23;;;4.10;;
8500;SDS011;4288;48.484;10.024;2023-04-10T10:12:18;5.47;;;3.93;;
8500;SDS011;4288;48.484;10.024;2023-04-10T10:14:53;5.50;;;4.17;;
8500;SDS011;4288;48.484;10.024;2023-04-10T10:17:28;4.40;;;3.30;;
8500;SDS011;4288;48.484;10.024;2023-04-10T10:20:04;6.37;;;4.47;;
8500;SDS011;4288;48.484;10.024;2023-04-10T10:22:36;4.03;;;3.60;;
8500;SDS011;4288;48.484;10.024;2023-04-10T10:25:03;5.13;;;3.20;;
8500;SDS011;4288;48.484;10.024;2023-04-10T10:27:35;5.17;;;4.23;;
8500;SDS011;4288;48.484;10.024;2023-04-10T10:30:03;5.17;;;3.50;;
8500;SDS011;4288;48.484;10.024;2023-04-10T10:32:33;5.37;;;4.83;;
8500;SDS011;4288;48.484;10.024;2023-04-10T10:35:01;6.13;;;4.33;;
8500;SDS011;4288;48.484;10.024;2023-04-10T10:37:29;7.10;;;4.10;;
8500;SDS011;4288;48.484;10.024;2023-04-10T10:39:58;3.03;;;2.67;;
8500;SDS011;4288;48.484;10.024;2023-04-10T10:42:38;2.70;;;2.50;;
8500;SDS011;4288;48.484;10.024;2023-04-10T10:45:12;3.80;;;3.20;;
8500;SDS011;4288;48.484;10.024;2023-04-10T10:47:43;3.33;;;3.03;;
8500;SDS011;4288;48.484;10.024;2023-04-10T10:50:16;11.00;;;3.30;;
8500;SDS011;4288;48.484;10.024;2023-04-10T10:52:44;4.23;;;2.60;;
8500;SDS011;4288;48.484;10.024;2023-04-10T10:55:27;2.53;;;2.33;;
8500;SDS011;4288;48.484;10.024;2023-04-10T10:58:03;3.07;;;2.77;;
8500;SDS011;4288;48.484;10.024;2023-04-10T11:03:35;3.07;;;2.57;;
8500;SDS011;4288;48.484;10.024;2023-04-10T11:06:03;3.40;;;2.70;;
8500;SDS011;4288;48.484;10.024;2023-04-10T11:08:39;3.30;;;2.50;;
8500;SDS011;4288;48.484;10.024;2023-04-10T11:11:19;6.57;;;3.50;;
8500;SDS011;4288;48.484;10.024;2023-04-10T11:16:42;3.83;;;2.60;;
8500;SDS011;4288;48.484;10.024;2023-04-10T11:19:13;2.57;;;2.20;;
8500;SDS011;4288;48.484;10.024;2023-04-10T11:21:59;2.70;;;2.50;;
8500;SDS011;4288;48.484;10.024;2023-04-10T11:24:29;4.23;;;3.10;;
8500;SDS011;4288;48.484;10.024;2023-04-10T11:27:37;4.33;;;2.70;;
8500;SDS011;4288;48.484;10.024;2023-04-10T11:30:30;2.97;;;2.50;;
8500;SDS011;4288;48.484;10.024;2023-04-10T11:33:02;3.00;;;2.70;;
8500;SDS011;4288;48.484;10.024;2023-04-10T11:35:30;2.70;;;2.43;;
8500;SDS011;4288;48.484;10.024;2023-04-10T11:38:07;3.07;;;2.27;;
8500;SDS011;4288;48.484;10.024;2023-04-10T11:40:51;3.07;;;2.57;;
8500;SDS011;4288;48.484;10.024;2023-04-10T11:43:26;2.67;;;2.30;;
8500;SDS011;4288;48.484;10.024;2023-04-10T11:46:02;3.10;;;2.27;;
8500;SDS011;4288;48.484;10.024;2023-04-10T11:48:32;3.20;;;2.57;;
8500;SDS011;4288;48.484;10.024;2023-04-10T11:51:07;2.50;;;2.23;;
8500;SDS011;4288;48.484;10.024;2023-04-10T11:53:36;2.47;;;2.10;;
8500;SDS011;4288;48.484;10.024;2023-04-10T11:56:04;2.27;;;1.93;;
8500;SDS011;4288;48.484;10.024;2023-04-10T11:58:40;2.67;;;2.10;;
8500;SDS011;4288;48.484;10.024;2023-04-10T12:01:09;2.70;;;2.00;;
8500;SDS011;4288;48.484;10.024;2023-04-10T12:03:39;1.73;;;1.30;;
8500;SDS011;4288;48.484;10.024;2023-04-10T12:06:08;1.27;;;1.17;;
8500;SDS011;4288;48.484;10.024;2023-04-10T12:08:37;2.60;;;1.80;;
8500;SDS011;4288;48.484;10.024;2023-04-10T12:11:06;1.40;;;1.30;;
8500;SDS011;4288;48.484;10.024;2023-04-10T12:13:35;2.47;;;1.73;;
8500;SDS011;4288;48.484;10.024;2023-04-10T12:16:03;1.53;;;1.30;;
8500;SDS011;4288;48.484;10.024;2023-04-10T12:18:34;1.20;;;1.10;;
8500;SDS011;4288;48.484;10.024;2023-04-10T12:21:03;1.50;;;1.40;;
8500;SDS011;4288;48.484;10.024;2023-04-10T12:23:32;1.17;;;1.07;;
8500;SDS011;4288;48.484;10.024;2023-04-10T12:26:06;1.37;;;1.27;;
8500;SDS011;4288;48.484;10.024;2023-04-10T12:28:37;20.57;;;3.07;;
8500;SDS011;4288;48.484;10.024;2023-04-10T12:31:06;1.83;;;1.50;;
8500;SDS011;4288;48.484;10.024;2023-04-10T12:33:35;2.70;;;1.37;;
8500;SDS011;4288;48.484;10.024;2023-04-10T12:36:02;2.40;;;1.60;;
8500;SDS011;4288;48.484;10.024;2023-04-10T12:38:33;1.17;;;1.00;;
8500;SDS011;4288;48.484;10.024;2023-04-10T12:41:05;1.77;;;1.23;;
8500;SDS011;4288;48.484;10.024;2023-04-10T12:43:34;1.30;;;1.20;;
8500;SDS011;4288;48.484;10.024;2023-04-10T12:46:03;1.40;;;1.30;;
8500;SDS011;4288;48.484;10.024;2023-04-10T12:48:32;1.40;;;1.30;;
8500;SDS011;4288;48.484;10.024;2023-04-10T12:51:01;1.60;;;1.27;;
8500;SDS011;4288;48.484;10.024;2023-04-10T12:53:28;1.10;;;1.00;;
8500;SDS011;4288;48.484;10.024;2023-04-10T12:56:00;1.70;;;1.27;;
8500;SDS011;4288;48.484;10.024;2023-04-10T12:58:29;3.43;;;1.50;;
8500;SDS011;4288;48.484;10.024;2023-04-10T13:00:57;2.80;;;1.90;;
8500;SDS011;4288;48.484;10.024;2023-04-10T13:03:28;1.47;;;1.30;;
8500;SDS011;4288;48.484;10.024;2023-04-10T13:05:56;1.20;;;1.10;;
8500;SDS011;4288;48.484;10.024;2023-04-10T13:08:24;1.77;;;1.63;;
8500;SDS011;4288;48.484;10.024;2023-04-10T13:10:51;2.20;;;1.37;;
8500;SDS011;4288;48.484;10.024;2023-04-10T13:13:19;1.60;;;1.20;;
8500;SDS011;4288;48.484;10.024;2023-04-10T13:15:46;1.97;;;1.60;;
8500;SDS011;4288;48.484;10.024;2023-04-10T13:18:13;4.80;;;2.20;;
8500;SDS011;4288;48.484;10.024;2023-04-10T13:20:40;1.77;;;1.60;;
8500;SDS011;4288;48.484;10.024;2023-04-10T13:23:07;1.50;;;1.40;;
8500;SDS011;4288;48.484;10.024;2023-04-10T13:25:37;1.30;;;1.20;;
8500;SDS011;4288;48.484;10.024;2023-04-10T13:28:06;1.53;;;1.40;;
8500;SDS011;4288;48.484;10.024;2023-04-10T13:30:35;2.30;;;1.60;;
8500;SDS011;4288;48.484;10.024;2023-04-10T13:33:03;1.27;;;1.17;;
8500;SDS011;4288;48.484;10.024;2023-04-10T13:35:31;2.33;;;1.47;;
8500;SDS011;4288;48.484;10.024;2023-04-10T13:37:58;1.43;;;1.20;;
8500;SDS011;4288;48.484;10.024;2023-04-10T13:40:26;0.97;;;0.90;;
8500;SDS011;4288;48.484;10.024;2023-04-10T13:42:55;1.50;;;1.40;;
8500;SDS011;4288;48.484;10.024;2023-04-10T13:45:22;1.47;;;0.90;;
8500;SDS011;4288;48.484;10.024;2023-04-10T13:47:49;1.93;;;1.43;;
8500;SDS011;4288;48.484;10.024;2023-04-10T13:50:16;1.27;;;1.17;;
8500;SDS011;4288;48.484;10.024;2023-04-10T13:52:43;1.23;;;1.10;;
8500;SDS011;4288;48.484;10.024;2023-04-10T13:55:11;1.30;;;1.07;;
8500;SDS011;4288;48.484;10.024;2023-04-10T13:57:38;1.40;;;1.30;;
8500;SDS011;4288;48.484;10.024;2023-04-10T14:00:07;1.83;;;1.57;;
8500;SDS011;4288;48.484;10.024;2023-04-10T14:02:35;2.53;;;1.73;;
8500;SDS011;4288;48.484;10.024;2023-04-10T14:05:03;2.07;;;1.87;;
8500;SDS011;4288;48.484;10.024;2023-04-10T14:07:30;2.10;;;1.30;;
8500;SDS011;4288;48.484;10.024;2023-04-10T14:09:58;1.40;;;1.23;;
8500;SDS011;4288;48.484;10.024;2023-04-10T14:12:25;1.50;;;1.40;;
8500;SDS011;4288;48.484;10.024;2023-04-10T14:14:52;1.30;;;1.20;;
8500;SDS011;4288;48.484;10.024;2023-04-10T14:17:22;1.47;;;1.20;;
8500;SDS011;4288;48.484;10.024;2023-04-10T14:19:49;1.73;;;1.27;;
8500;SDS011;4288;48.484;10.024;2023-04-10T14:22:17;1.63;;;1.43;;
8500;SDS011;4288;48.484;10.024;2023-04-10T14:24:45;1.20;;;1.10;;
8500;SDS011;4288;48.484;10.024;2023-04-10T14:27:12;1.23;;;1.13;;
8500;SDS011;4288;48.484;10.024;2023-04-10T14:29:39;1.67;;;1.57;;
8500;SDS011;4288;48.484;10.024;2023-04-10T14:32:07;1.40;;;1.13;;
8500;SDS011;4288;48.484;10.024;2023-04-10T14:34:35;1.20;;;1.10;;
8500;SDS011;4288;48.484;10.024;2023-04-10T14:37:02;1.17;;;1.07;;
8500;SDS011;4288;48.484;10.024;2023-04-10T14:39:29;1.20;;;1.10;;
8500;SDS011;4288;48.484;10.024;2023-04-10T14:41:57;2.23;;;1.40;;
8500;SDS011;4288;48.484;10.024;2023-04-10T14:44:26;1.67;;;1.47;;
8500;SDS011;4288;48.484;10.024;2023-04-10T14:46:54;1.83;;;1.27;;
8500;SDS011;4288;48.484;10.024;2023-04-10T14:49:21;1.60;;;1.50;;
8500;SDS011;4288;48.484;10.024;2023-04-10T14:51:49;1.10;;;1.10;;
8500;SDS011;4288;48.484;10.024;2023-04-10T14:54:16;1.53;;;1.43;;
8500;SDS011;4288;48.484;10.024;2023-04-10T14:56:45;1.40;;;1.30;;
8500;SDS011;4288;48.484;10.024;2023-04-10T14:59:13;1.37;;;1.27;;
8500;SDS011;4288;48.484;10.024;2023-04-10T15:01:40;5.33;;;1.40;;
8500;SDS011;4288;48.484;10.024;2023-04-10T15:04:07;1.90;;;1.53;;
8500;SDS011;4288;48.484;10.024;2023-04-10T15:06:35;1.30;;;1.20;;
8500;SDS011;4288;48.484;10.024;2023-04-10T15:09:04;2.00;;;1.57;;
8500;SDS011;4288;48.484;10.024;2023-04-10T15:11:31;1.73;;;1.40;;
8500;SDS011;4288;48.484;10.024;2023-04-10T15:13:59;1.50;;;1.20;;